Notre-Dame-du-Portage, Canada
Current Conditions -  °F | °C
As of 12:53 PM on Friday 24 Oct 2014 (Local Time) from KFVE Reporting Station
Light Rain Light Rain  
Wind Chill:   Ceiling: 4600
Heat Index:   Visibility: 10mi
Dew Point:   Wind: 13mph
Humidity: 89%   Direction: 360°N
Pressure: 29.77"   Gusts: 20mph
Location:  47.76°N, 69.61°W
Report Text: KFVE 241653Z AUTO 36011G17KT 10SM -RA OVC046 04/02 A2977 RMK AO2 SLP085 P0005 T00390022
Loading
Personal Weather Stations






























Interactive Weather Map
Tropical Storm Tracking
New forecast layout! Learn more

10-Day Weather Forecast

Advertisements
Track Severe Weather on mobile